Time;durP1;ratioP1;P1;durP2;ratioP2;P2;SDS_P1;SDS_P2;PMS_P1;PMS_P2;Temp;Humidity;BMP_temperature;BMP_pressure;BME280_temperature;BME280_humidity;BME280_pressure;Samples;Min_cycle;Max_cycle;Signal;HPM_P1;HPM_P2
2024/01/11 00:08:28;;;;;;;32.50;11.20;;;;;;;1.86;100.00;100761.13;30988181;28;20470;-76
2024/01/11 00:23:30;;;;;;;23.97;10.43;;;;;;;1.78;100.00;100754.03;30986747;28;20062;-77
2024/01/11 00:38:32;;;;;;;21.60;10.80;;;;;;;1.69;100.00;100730.06;30983827;28;20122;-76
2024/01/11 00:53:34;;;;;;;21.73;11.30;;;;;;;1.71;100.00;100706.44;30993130;28;20054;-76
2024/01/11 01:08:36;;;;;;;22.10;11.00;;;;;;;1.76;100.00;100680.53;30991586;28;20061;-76
2024/01/11 01:23:38;;;;;;;20.23;11.87;;;;;;;1.69;100.00;100671.19;31006004;28;20058;-76
2024/01/11 01:38:40;;;;;;;22.50;11.27;;;;;;;1.58;100.00;100622.00;30977640;28;20105;-77
2024/01/11 01:53:42;;;;;;;15.63;8.73;;;;;;;1.97;100.00;100590.78;30999383;28;20066;-78
2024/01/11 02:08:45;;;;;;;21.03;8.07;;;;;;;1.60;100.00;100544.03;30976245;28;20052;-77
2024/01/11 02:24:03;;;;;;;22.47;9.00;;;;;;;1.75;100.00;100502.31;30982963;28;20050;-75
2024/01/11 02:39:06;;;;;;;20.20;8.97;;;;;;;2.50;100.00;100492.03;30992583;28;20505;-88
2024/01/11 02:54:08;;;;;;;21.40;10.73;;;;;;;1.89;100.00;100475.88;31065702;28;20130;-85
2024/01/11 03:09:10;;;;;;;17.33;8.27;;;;;;;1.48;100.00;100427.19;31034865;28;20423;-75
2024/01/11 03:24:13;;;;;;;17.17;8.07;;;;;;;1.32;100.00;100389.78;30957378;28;20082;-75
2024/01/11 03:39:15;;;;;;;16.70;7.83;;;;;;;1.07;100.00;100382.31;30989926;28;20051;-75
2024/01/11 03:54:17;;;;;;;16.53;7.50;;;;;;;1.06;100.00;100368.16;31005791;28;20066;-77
2024/01/11 04:09:20;;;;;;;13.10;6.20;;;;;;;0.84;100.00;100342.84;31031759;28;20046;-85
2024/01/11 04:24:22;;;;;;;8.33;5.27;;;;;;;1.31;100.00;100307.19;31087981;28;20993;-85
2024/01/11 04:39:24;;;;;;;7.90;4.73;;;;;;;0.80;100.00;100280.50;31071640;28;20050;-86
2024/01/11 05:10:52;;;;;;;10.50;5.70;;;;;;;0.54;100.00;100243.66;31095336;28;20552;-84
2024/01/11 05:25:54;;;;;;;14.30;5.07;;;;;;;0.51;100.00;100232.88;31083847;28;20058;-85
2024/01/11 05:40:56;;;;;;;17.37;7.13;;;;;;;1.88;100.00;100244.09;31182137;28;20054;-86
2024/01/11 05:56:10;;;;;;;25.70;10.23;;;;;;;2.24;100.00;100216.75;31179498;28;20062;-86
2024/01/11 06:11:13;;;;;;;22.67;10.33;;;;;;;1.79;100.00;100171.25;31189311;28;20046;-86
2024/01/11 06:42:55;;;;;;;21.73;9.83;;;;;;;0.36;100.00;100103.59;30978122;28;20508;-84
2024/01/11 06:57:57;;;;;;;11.83;7.17;;;;;;;0.42;100.00;100080.09;31042250;28;20046;-86
2024/01/11 07:12:59;;;;;;;13.97;6.90;;;;;;;0.36;100.00;100038.75;31042912;28;20065;-84
2024/01/11 07:28:02;;;;;;;16.20;9.03;;;;;;;1.20;100.00;100007.47;31018873;28;20062;-85
2024/01/11 07:43:04;;;;;;;19.13;9.33;;;;;;;1.55;100.00;100038.59;31057706;28;20057;-85
2024/01/11 07:58:06;;;;;;;15.80;9.10;;;;;;;1.58;100.00;99995.84;31096942;28;20050;-82
2024/01/11 08:13:09;;;;;;;14.30;7.43;;;;;;;0.60;100.00;99961.00;31016052;28;20062;-81
2024/01/11 08:28:12;;;;;;;13.13;7.50;;;;;;;1.64;100.00;99940.91;30954828;28;20042;-84
2024/01/11 08:43:14;;;;;;;12.70;7.97;;;;;;;1.44;100.00;99887.84;30969388;28;20118;-83
2024/01/11 08:58:16;;;;;;;10.97;5.20;;;;;;;1.67;100.00;99886.63;31001179;28;20054;-83
2024/01/11 09:13:19;;;;;;;11.77;6.73;;;;;;;1.64;100.00;99860.63;31016568;28;20062;-83
2024/01/11 09:28:21;;;;;;;22.47;8.87;;;;;;;0.79;100.00;99800.63;31038212;28;20133;-83
2024/01/11 09:43:23;;;;;;;13.10;7.27;;;;;;;1.73;100.00;99761.31;31034459;28;20066;-86
2024/01/11 09:58:26;;;;;;;15.90;9.37;;;;;;;1.99;100.00;99753.16;31023244;28;20054;-81
2024/01/11 10:13:30;;;;;;;15.47;9.00;;;;;;;2.40;100.00;99686.91;30943247;28;20086;-81
2024/01/11 10:28:36;;;;;;;19.87;8.63;;;;;;;2.10;100.00;99651.50;30918278;28;20517;-81
2024/01/11 10:43:38;;;;;;;31.38;12.23;;;;;;;1.19;100.00;99642.28;31011851;28;20065;-82
2024/01/11 10:58:43;;;;;;;20.87;9.03;;;;;;;1.39;100.00;99618.81;30970014;28;20118;-86
2024/01/11 11:14:15;;;;;;;;;;;;;;;;;;;;;
2024/01/11 11:29:38;;;;;;;27.73;12.57;;;;;;;1.53;100.00;99576.13;30969901;28;20410;-81
2024/01/11 11:44:49;;;;;;;35.03;14.70;;;;;;;1.81;100.00;99545.38;30982004;28;20114;-84
2024/01/11 11:59:53;;;;;;;19.83;11.07;;;;;;;1.83;100.00;99508.31;31071800;28;20049;-82
2024/01/11 12:14:58;;;;;;;22.97;12.93;;;;;;;1.97;100.00;99497.66;31016810;28;20061;-82
2024/01/11 12:30:16;;;;;;;27.23;13.10;;;;;;;1.77;100.00;99493.72;31001069;28;20069;-82
2024/01/11 12:45:20;;;;;;;26.27;11.03;;;;;;;1.52;100.00;99515.75;31077539;28;20054;-86
2024/01/11 13:00:23;;;;;;;23.50;11.73;;;;;;;1.54;100.00;99502.00;31028790;28;20141;-80
2024/01/11 13:15:25;;;;;;;26.93;12.50;;;;;;;1.56;100.00;99473.72;31020506;28;20094;-78
2024/01/11 13:30:27;;;;;;;24.47;12.27;;;;;;;1.68;100.00;99467.28;30960994;28;20262;-81
2024/01/11 13:45:32;;;;;;;26.23;13.40;;;;;;;1.75;100.00;99427.19;30896738;28;20059;-79
2024/01/11 14:00:34;;;;;;;20.83;9.47;;;;;;;1.64;100.00;99410.34;30938796;28;20072;-78
2024/01/11 14:15:48;;;;;;;23.83;10.87;;;;;;;1.76;100.00;99390.50;30972449;28;20048;-82
2024/01/11 14:30:50;;;;;;;28.17;11.97;;;;;;;1.85;100.00;99382.91;31011072;28;20058;-80
2024/01/11 14:45:53;;;;;;;23.73;11.37;;;;;;;1.77;100.00;99365.28;31001332;28;20050;-80
2024/01/11 15:01:09;;;;;;;;;;;;;;;;;;;;;
2024/01/11 15:16:22;;;;;;;;;;;;;;;;;;;;;
2024/01/11 15:31:28;;;;;;;24.27;11.80;;;;;;;1.81;100.00;99323.25;30994229;28;20058;-82
2024/01/11 15:46:35;;;;;;;21.73;10.90;;;;;;;1.97;100.00;99329.03;30978908;28;20471;-83
2024/01/11 16:01:40;;;;;;;25.90;11.70;;;;;;;2.08;100.00;99321.03;31010655;28;20109;-82
2024/01/11 16:17:09;;;;;;;23.50;11.00;;;;;;;2.00;100.00;99309.53;30979627;28;20069;-79
2024/01/11 16:32:15;;;;;;;18.50;9.37;;;;;;;2.10;100.00;99319.50;30988808;28;20050;-79
2024/01/11 16:47:17;;;;;;;14.63;7.53;;;;;;;2.17;100.00;99306.09;30977797;28;20061;-82
2024/01/11 17:02:23;;;;;;;20.77;10.20;;;;;;;2.24;100.00;99306.13;30981787;28;20077;-82
2024/01/11 17:17:25;;;;;;;26.52;11.68;;;;;;;2.21;100.00;99304.19;30993310;28;20085;-82
2024/01/11 17:32:27;;;;;;;23.10;11.73;;;;;;;2.03;100.00;99271.28;30992353;28;20066;-81
2024/01/11 17:47:29;;;;;;;23.03;10.90;;;;;;;1.88;100.00;99237.63;30985799;28;20058;-81
2024/01/11 18:02:33;;;;;;;18.33;9.37;;;;;;;1.93;100.00;99232.66;30963282;28;20054;-83
2024/01/11 18:17:40;;;;;;;29.63;11.90;;;;;;;2.67;100.00;99217.69;31037277;28;20058;-86
2024/01/11 18:32:42;;;;;;;20.30;9.87;;;;;;;3.09;100.00;99216.81;31009105;28;20434;-82
2024/01/11 18:47:45;;;;;;;21.67;11.17;;;;;;;2.90;100.00;99201.94;31001575;28;20529;-84
2024/01/11 19:02:48;;;;;;;25.23;10.83;;;;;;;2.85;100.00;99183.56;31011294;28;20059;-82
2024/01/11 19:17:51;;;;;;;27.97;13.47;;;;;;;2.74;100.00;99190.88;31018314;28;20058;-87
2024/01/11 19:32:53;;;;;;;22.63;10.47;;;;;;;2.70;100.00;99190.13;31001562;28;20109;-84
2024/01/11 19:47:56;;;;;;;23.57;10.90;;;;;;;2.74;100.00;99180.16;30982437;28;20054;-84
2024/01/11 20:02:58;;;;;;;21.10;10.67;;;;;;;2.69;100.00;99161.78;31010344;28;20073;-86
2024/01/11 20:18:01;;;;;;;18.87;10.53;;;;;;;2.69;100.00;99156.44;30997129;28;20054;-82
2024/01/11 20:33:04;;;;;;;23.27;11.30;;;;;;;2.64;100.00;99157.59;31017354;28;20058;-80
2024/01/11 20:48:06;;;;;;;25.50;12.30;;;;;;;1.83;100.00;99158.47;31085588;28;20137;-79
2024/01/11 21:03:08;;;;;;;28.33;12.53;;;;;;;2.61;100.00;99144.97;31010980;28;20144;-84
2024/01/11 21:18:11;;;;;;;24.40;11.47;;;;;;;1.82;100.00;99132.09;31021183;28;20141;-85
2024/01/11 21:33:15;;;;;;;24.93;11.53;;;;;;;2.57;100.00;99146.91;31040362;28;20054;-85
2024/01/11 21:48:18;;;;;;;31.33;14.47;;;;;;;2.63;100.00;99133.88;31024367;28;20149;-86
2024/01/11 22:03:20;;;;;;;29.53;13.13;;;;;;;2.97;100.00;99139.50;31023828;28;20050;-85
2024/01/11 22:18:22;;;;;;;35.60;13.57;;;;;;;2.97;100.00;99144.84;30995337;28;20399;-85
2024/01/11 22:33:25;;;;;;;27.67;11.67;;;;;;;1.95;100.00;99125.19;31030859;28;20120;-86
2024/01/11 22:48:27;;;;;;;28.43;13.30;;;;;;;1.84;100.00;99116.44;30992588;28;20375;-75
2024/01/11 23:03:29;;;;;;;24.83;12.00;;;;;;;1.87;100.00;99134.41;30990683;28;20054;-76
2024/01/11 23:18:31;;;;;;;28.03;12.83;;;;;;;2.02;100.00;99130.56;30987238;28;20062;-77
2024/01/11 23:33:34;;;;;;;25.57;13.33;;;;;;;2.04;100.00;99138.97;31007559;28;20090;-85
2024/01/11 23:48:36;;;;;;;26.27;11.07;;;;;;;2.09;100.00;99143.19;31016000;28;20074;-86
